createdAt,value
2018-11-26T00:02:14.550Z,29.13
2018-11-26T00:04:42.119Z,32.63
2018-11-26T00:07:09.404Z,38.23
2018-11-26T00:09:36.659Z,32.07
2018-11-26T00:12:04.241Z,32.53
2018-11-26T00:14:31.746Z,32.83
2018-11-26T00:16:59.063Z,36.43
2018-11-26T00:19:26.383Z,33.10
2018-11-26T00:21:53.696Z,35.13
2018-11-26T00:24:21.042Z,31.73
2018-11-26T00:26:48.596Z,35.57
2018-11-26T00:29:15.884Z,36.23
2018-11-26T00:31:43.507Z,30.57
2018-11-26T00:34:11.222Z,31.03
2018-11-26T00:36:38.524Z,36.90
2018-11-26T00:39:09.324Z,34.40
2018-11-26T00:41:37.003Z,29.47
2018-11-26T00:44:04.218Z,33.23
2018-11-26T00:46:31.748Z,39.30
2018-11-26T00:48:59.355Z,37.10
2018-11-26T00:51:26.883Z,34.60
2018-11-26T00:53:54.128Z,33.83
2018-11-26T00:56:21.399Z,38.27
2018-11-26T00:58:48.948Z,28.97
2018-11-26T01:01:16.215Z,28.37
2018-11-26T01:03:43.583Z,31.80
2018-11-26T01:06:10.983Z,36.80
2018-11-26T01:08:38.238Z,32.87
2018-11-26T01:11:06.308Z,44.50
2018-11-26T01:13:33.539Z,32.87
2018-11-26T01:16:00.780Z,35.97
2018-11-26T01:18:27.963Z,33.30
2018-11-26T01:20:55.199Z,34.60
2018-11-26T01:23:22.405Z,30.27
2018-11-26T01:25:50.278Z,30.27
2018-11-26T01:28:17.516Z,29.57
2018-11-26T01:30:44.756Z,28.17
2018-11-26T01:33:11.950Z,30.57
2018-11-26T01:35:39.158Z,30.13
2018-11-26T01:38:06.403Z,29.83
2018-11-26T01:40:38.883Z,26.73
2018-11-26T01:43:06.134Z,31.70
2018-11-26T01:45:33.337Z,32.87
2018-11-26T01:48:06.695Z,29.53
2018-11-26T01:50:33.901Z,28.03
2018-11-26T01:53:01.130Z,29.87
2018-11-26T01:55:28.360Z,28.80
2018-11-26T01:57:55.578Z,27.43
2018-11-26T02:00:23.944Z,28.13
2018-11-26T02:02:50.657Z,28.23
2018-11-26T02:05:18.200Z,27.00
2018-11-26T02:07:45.439Z,27.60
2018-11-26T02:10:14.504Z,25.73
2018-11-26T02:12:41.799Z,26.93
2018-11-26T02:15:11.919Z,24.47
2018-11-26T02:17:40.188Z,26.73
2018-11-26T02:20:08.062Z,31.40
2018-11-26T02:22:35.361Z,26.90
2018-11-26T02:25:02.631Z,27.50
2018-11-26T02:27:29.897Z,27.57
2018-11-26T02:29:57.215Z,29.07
2018-11-26T02:32:24.607Z,27.50
2018-11-26T02:34:51.889Z,27.17
2018-11-26T02:37:19.447Z,25.63
2018-11-26T02:39:46.736Z,27.97
2018-11-26T02:42:13.992Z,29.83
2018-11-26T02:44:41.316Z,29.07
2018-11-26T02:47:08.632Z,29.13
2018-11-26T02:49:35.921Z,28.97
2018-11-26T02:52:03.222Z,23.53
2018-11-26T02:54:30.498Z,26.90
2018-11-26T02:56:57.767Z,27.90
2018-11-26T02:59:25.311Z,28.23
2018-11-26T03:01:52.610Z,30.97
2018-11-26T03:04:19.933Z,25.97
2018-11-26T03:06:47.686Z,29.63
2018-11-26T03:09:14.994Z,28.87
2018-11-26T03:11:42.284Z,30.57
2018-11-26T03:14:09.600Z,29.07
2018-11-26T03:16:36.879Z,26.40
2018-11-26T03:19:04.166Z,30.47
2018-11-26T03:21:31.440Z,29.53
2018-11-26T03:23:59.050Z,30.40
2018-11-26T03:26:26.309Z,31.50
2018-11-26T03:28:53.609Z,29.63
2018-11-26T03:31:20.934Z,30.30
2018-11-26T03:33:48.235Z,25.97
2018-11-26T03:36:15.514Z,29.97
2018-11-26T03:38:44.533Z,29.20
2018-11-26T03:41:11.780Z,29.17
2018-11-26T03:43:39.060Z,31.87
2018-11-26T03:46:06.348Z,34.80
2018-11-26T03:48:34.091Z,32.10
2018-11-26T03:51:01.402Z,28.97
2018-11-26T03:53:28.736Z,30.23
2018-11-26T03:55:56.031Z,32.27
2018-11-26T03:58:23.312Z,30.63
2018-11-26T04:00:52.868Z,30.50
2018-11-26T04:03:20.162Z,31.77
2018-11-26T04:05:47.715Z,34.13
2018-11-26T04:08:15.032Z,33.07
2018-11-26T04:10:42.307Z,31.87
2018-11-26T04:13:09.584Z,33.60
2018-11-26T04:15:36.888Z,33.23
2018-11-26T04:18:04.191Z,35.30
2018-11-26T04:20:31.452Z,33.00
2018-11-26T04:22:58.765Z,32.20
2018-11-26T04:25:26.315Z,30.80
2018-11-26T04:27:53.592Z,31.17
2018-11-26T04:30:20.863Z,30.40
2018-11-26T04:32:48.100Z,32.57
2018-11-26T04:35:15.364Z,36.53
2018-11-26T04:37:42.625Z,35.80
2018-11-26T04:40:10.049Z,36.47
2018-11-26T04:42:37.423Z,37.10
2018-11-26T04:45:05.085Z,33.43
2018-11-26T04:47:32.367Z,33.23
2018-11-26T04:50:00.009Z,33.50
2018-11-26T04:52:27.344Z,33.67
2018-11-26T04:54:54.609Z,36.23
2018-11-26T04:57:22.372Z,34.50
2018-11-26T04:59:49.844Z,36.57
2018-11-26T05:02:17.142Z,34.00
2018-11-26T05:04:44.413Z,33.43
2018-11-26T05:07:11.660Z,35.67
2018-11-26T05:09:38.963Z,30.67
2018-11-26T05:12:06.223Z,35.30
2018-11-26T05:14:33.519Z,32.03
2018-11-26T05:17:00.763Z,37.30
2018-11-26T05:19:28.436Z,36.50
2018-11-26T05:21:55.719Z,35.00
2018-11-26T05:24:22.972Z,38.43
2018-11-26T05:26:50.299Z,36.57
2018-11-26T05:29:17.605Z,35.77
2018-11-26T05:31:44.853Z,35.07
2018-11-26T05:34:12.157Z,39.43
2018-11-26T05:36:39.504Z,44.17
2018-11-26T05:39:07.605Z,37.80
2018-11-26T05:41:34.880Z,40.23
2018-11-26T05:44:02.183Z,36.40
2018-11-26T05:46:29.449Z,38.97
2018-11-26T05:48:56.768Z,38.63
2018-11-26T05:51:24.048Z,36.60
2018-11-26T05:53:51.332Z,37.60
2018-11-26T05:56:18.576Z,35.33
2018-11-26T05:58:45.905Z,41.00
2018-11-26T06:01:13.529Z,38.70
2018-11-26T06:03:40.809Z,36.67
2018-11-26T06:06:08.072Z,35.90
2018-11-26T06:08:35.415Z,32.00
2018-11-26T06:11:02.729Z,35.00
2018-11-26T06:13:30.031Z,37.40
2018-11-26T06:15:57.474Z,37.50
2018-11-26T06:18:24.764Z,38.83
2018-11-26T06:20:52.059Z,33.57
2018-11-26T06:23:19.353Z,37.10
2018-11-26T06:25:46.632Z,35.90
2018-11-26T06:28:13.940Z,40.93
2018-11-26T06:30:41.420Z,41.97
2018-11-26T06:33:08.664Z,40.07
2018-11-26T06:35:35.891Z,38.57
2018-11-26T06:38:03.201Z,34.90
2018-11-26T06:40:30.814Z,40.90
2018-11-26T06:42:58.431Z,41.03
2018-11-26T06:45:25.716Z,36.40
2018-11-26T06:47:53.042Z,36.93
2018-11-26T06:50:20.789Z,33.67
2018-11-26T06:52:48.328Z,35.70
2018-11-26T06:55:16.229Z,32.47
2018-11-26T06:57:43.538Z,36.27
2018-11-26T07:00:11.698Z,36.87
2018-11-26T07:02:39.025Z,33.93
2018-11-26T07:05:07.969Z,35.80
2018-11-26T07:07:35.491Z,37.40
2018-11-26T07:10:02.808Z,37.30
2018-11-26T07:12:30.128Z,35.87
2018-11-26T07:14:57.410Z,37.07
2018-11-26T07:17:24.685Z,37.60
2018-11-26T07:19:52.012Z,35.87
2018-11-26T07:22:19.310Z,33.67
2018-11-26T07:24:46.576Z,41.83
2018-11-26T07:27:15.298Z,37.43
2018-11-26T07:29:41.462Z,39.47
2018-11-26T07:32:08.829Z,35.00
2018-11-26T07:34:36.068Z,33.60
2018-11-26T07:37:03.312Z,40.13
2018-11-26T07:39:30.572Z,38.33
2018-11-26T07:41:57.823Z,43.50
2018-11-26T07:44:25.166Z,37.80
2018-11-26T07:46:52.980Z,40.57
2018-11-26T07:49:20.267Z,38.47
2018-11-26T07:51:47.528Z,42.23
2018-11-26T07:54:14.789Z,35.47
2018-11-26T07:56:42.512Z,38.13
2018-11-26T07:59:09.771Z,39.10
2018-11-26T08:01:37.042Z,38.47
2018-11-26T08:04:04.344Z,40.13
2018-11-26T08:06:31.674Z,34.97
2018-11-26T08:08:58.957Z,40.77
2018-11-26T08:11:26.247Z,37.90
2018-11-26T08:13:53.530Z,40.57
2018-11-26T08:16:20.829Z,37.27
2018-11-26T08:18:48.127Z,40.70
2018-11-26T08:21:15.599Z,38.87
2018-11-26T08:23:42.896Z,38.30
2018-11-26T08:26:10.123Z,36.23
2018-11-26T08:28:37.378Z,44.30
2018-11-26T08:31:04.860Z,42.53
2018-11-26T08:33:32.523Z,39.33
2018-11-26T08:36:05.320Z,36.47
2018-11-26T08:38:38.021Z,43.90
2018-11-26T08:41:13.164Z,35.40
2018-11-26T08:43:46.255Z,34.53
2018-11-26T08:46:18.104Z,38.73
2018-11-26T08:48:52.452Z,40.60
2018-11-26T08:51:19.958Z,41.93
2018-11-26T08:53:47.551Z,38.83
2018-11-26T08:56:15.933Z,40.53
2018-11-26T08:58:41.988Z,35.67
2018-11-26T09:01:14.755Z,46.87
2018-11-26T09:03:47.464Z,38.13
2018-11-26T09:06:14.684Z,33.70
2018-11-26T09:08:41.933Z,34.53
2018-11-26T09:11:09.324Z,39.07
2018-11-26T09:13:36.602Z,38.63
2018-11-26T09:16:03.843Z,38.73
2018-11-26T09:18:31.107Z,42.70
2018-11-26T09:20:58.327Z,37.60
2018-11-26T09:23:25.785Z,32.03
2018-11-26T09:25:53.527Z,35.87
2018-11-26T09:28:20.889Z,35.53
2018-11-26T09:30:48.179Z,44.33
2018-11-26T09:33:15.502Z,34.30
2018-11-26T09:35:43.066Z,33.80
2018-11-26T09:38:10.356Z,33.20
2018-11-26T09:40:37.700Z,36.07
2018-11-26T09:43:05.814Z,33.70
2018-11-26T09:45:35.980Z,33.30
2018-11-26T09:48:00.705Z,31.13
2018-11-26T09:50:28.020Z,36.80
2018-11-26T09:52:55.866Z,32.37
2018-11-26T09:55:22.975Z,31.60
2018-11-26T09:57:50.739Z,36.80
2018-11-26T10:00:18.780Z,34.70
2018-11-26T10:02:46.448Z,33.13
2018-11-26T10:05:14.731Z,32.80
2018-11-26T10:07:42.129Z,35.17
2018-11-26T10:10:10.066Z,42.90
2018-11-26T10:12:37.474Z,34.00
2018-11-26T10:15:06.216Z,32.27
2018-11-26T10:17:33.519Z,34.93
2018-11-26T10:20:01.106Z,34.60
2018-11-26T10:22:28.404Z,34.10
2018-11-26T10:24:55.680Z,34.77
2018-11-26T10:27:23.008Z,35.27
2018-11-26T10:29:50.312Z,34.30
2018-11-26T10:32:18.414Z,33.30
2018-11-26T10:34:45.692Z,40.20
2018-11-26T10:37:13.014Z,33.90
2018-11-26T10:39:40.278Z,40.67
2018-11-26T10:42:07.542Z,33.47
2018-11-26T10:44:34.793Z,35.03
2018-11-26T10:47:02.112Z,35.87
2018-11-26T10:49:29.403Z,35.00
2018-11-26T10:51:56.750Z,32.87
2018-11-26T10:54:24.008Z,35.67
2018-11-26T10:56:51.563Z,32.67
2018-11-26T10:59:19.491Z,31.80
2018-11-26T11:01:51.329Z,34.80
2018-11-26T11:04:18.636Z,35.70
2018-11-26T11:06:46.008Z,33.37
2018-11-26T11:09:13.556Z,34.80
2018-11-26T11:11:40.821Z,36.47
2018-11-26T11:14:08.099Z,36.00
2018-11-26T11:16:35.408Z,31.90
2018-11-26T11:19:02.987Z,32.90
2018-11-26T11:21:30.298Z,36.87
2018-11-26T11:23:57.621Z,33.37
2018-11-26T11:26:25.254Z,34.87
2018-11-26T11:28:52.542Z,39.53
2018-11-26T11:31:19.855Z,38.03
2018-11-26T11:33:47.190Z,36.63
2018-11-26T11:36:14.491Z,35.43
2018-11-26T11:38:41.747Z,38.20
2018-11-26T11:41:09.061Z,38.50
2018-11-26T11:43:36.404Z,39.50
2018-11-26T11:46:03.729Z,37.87
2018-11-26T11:48:31.054Z,44.03
2018-11-26T11:50:58.363Z,45.77
2018-11-26T11:53:25.646Z,42.73
2018-11-26T11:55:52.939Z,47.57
2018-11-26T11:58:20.183Z,42.47
2018-11-26T12:00:48.487Z,43.87
2018-11-26T12:03:16.703Z,39.07
2018-11-26T12:05:44.064Z,40.77
2018-11-26T12:08:11.619Z,46.17
2018-11-26T12:10:38.908Z,48.30
2018-11-26T12:13:06.741Z,54.23
2018-11-26T12:15:34.073Z,45.83
2018-11-26T12:18:01.302Z,38.50
2018-11-26T12:20:28.541Z,51.83
2018-11-26T12:22:55.844Z,56.03
2018-11-26T12:25:23.157Z,61.03
2018-11-26T12:27:50.449Z,51.47
2018-11-26T12:30:21.256Z,56.47
2018-11-26T12:32:48.912Z,43.97
2018-11-26T12:35:16.389Z,46.93
2018-11-26T12:37:43.693Z,37.57
2018-11-26T12:40:11.627Z,41.83
2018-11-26T12:42:38.934Z,38.17
2018-11-26T12:45:09.557Z,39.90
2018-11-26T12:47:36.843Z,39.27
2018-11-26T12:50:04.352Z,34.47
2018-11-26T12:52:31.883Z,35.57
2018-11-26T12:54:59.175Z,36.17
2018-11-26T12:57:26.473Z,34.03
2018-11-26T12:59:53.713Z,37.17
2018-11-26T13:02:20.986Z,36.87
2018-11-26T13:04:48.270Z,38.27
2018-11-26T13:07:15.573Z,36.90
2018-11-26T13:09:42.850Z,36.73
2018-11-26T13:12:10.172Z,36.93
2018-11-26T13:14:37.506Z,38.00
2018-11-26T13:17:05.071Z,39.47
2018-11-26T13:19:32.335Z,39.53
2018-11-26T13:21:59.624Z,36.77
2018-11-26T13:24:26.879Z,39.73
2018-11-26T13:26:54.181Z,49.17
2018-11-26T13:29:21.486Z,36.97
2018-11-26T13:31:48.743Z,39.13
2018-11-26T13:34:16.028Z,47.60
2018-11-26T13:36:43.317Z,41.70
2018-11-26T13:39:10.617Z,38.27
2018-11-26T13:41:38.192Z,39.00
2018-11-26T13:44:06.264Z,45.37
2018-11-26T13:46:33.525Z,43.70
2018-11-26T13:49:01.500Z,42.50
2018-11-26T13:51:28.828Z,40.97
2018-11-26T13:53:56.093Z,46.27
2018-11-26T13:56:23.756Z,48.37
2018-11-26T13:58:51.022Z,47.00
2018-11-26T14:01:18.270Z,34.17
2018-11-26T14:03:45.581Z,41.37
2018-11-26T14:06:12.869Z,42.57
2018-11-26T14:08:40.173Z,43.67
2018-11-26T14:11:07.438Z,41.83
2018-11-26T14:13:34.763Z,44.87
2018-11-26T14:16:02.121Z,44.17
2018-11-26T14:18:29.444Z,44.73
2018-11-26T14:20:56.712Z,42.57
2018-11-26T14:23:24.010Z,45.50
2018-11-26T14:25:51.329Z,36.10
2018-11-26T14:28:18.739Z,43.83
2018-11-26T14:30:46.110Z,44.10
2018-11-26T14:33:13.423Z,43.50
2018-11-26T14:35:40.711Z,47.10
2018-11-26T14:38:08.503Z,44.20
2018-11-26T14:40:38.716Z,44.77
2018-11-26T14:43:06.182Z,39.60
2018-11-26T14:45:33.685Z,44.30
2018-11-26T14:48:01.169Z,45.63
2018-11-26T14:50:28.789Z,43.90
2018-11-26T14:52:56.106Z,41.90
2018-11-26T14:55:26.951Z,40.77
2018-11-26T14:57:54.230Z,41.63
2018-11-26T15:00:21.729Z,46.20
2018-11-26T15:02:49.032Z,47.97
2018-11-26T15:05:16.320Z,48.90
2018-11-26T15:07:43.826Z,45.77
2018-11-26T15:10:12.613Z,43.73
2018-11-26T15:12:39.923Z,46.67
2018-11-26T15:15:08.274Z,51.73
2018-11-26T15:17:35.568Z,46.97
2018-11-26T15:20:03.264Z,50.30
2018-11-26T15:22:30.681Z,48.57
2018-11-26T15:24:57.977Z,48.70
2018-11-26T15:27:25.306Z,48.40
2018-11-26T15:29:52.548Z,48.87
2018-11-26T15:32:19.845Z,47.83
2018-11-26T15:34:47.167Z,49.17
2018-11-26T15:37:14.502Z,54.83
2018-11-26T15:39:41.839Z,56.73
2018-11-26T15:42:09.129Z,51.13
2018-11-26T15:44:36.470Z,46.63
2018-11-26T15:47:03.738Z,49.60
2018-11-26T15:49:30.994Z,53.60
2018-11-26T15:51:58.301Z,52.30
2018-11-26T15:54:25.588Z,55.80
2018-11-26T15:56:53.265Z,50.47
2018-11-26T15:59:20.488Z,53.67
2018-11-26T16:01:47.752Z,49.00
2018-11-26T16:04:15.112Z,48.10
2018-11-26T16:06:42.388Z,47.23
2018-11-26T16:09:09.990Z,54.20
2018-11-26T16:11:37.666Z,54.70
2018-11-26T16:14:05.521Z,50.40
2018-11-26T16:16:33.143Z,51.23
2018-11-26T16:19:00.518Z,54.50
2018-11-26T16:21:27.824Z,56.50
2018-11-26T16:23:55.070Z,46.67
2018-11-26T16:26:22.387Z,54.70
2018-11-26T16:28:49.693Z,56.27
2018-11-26T16:31:16.993Z,54.73
2018-11-26T16:33:44.299Z,48.47
2018-11-26T16:36:11.614Z,54.80
2018-11-26T16:38:38.929Z,55.63
2018-11-26T16:41:06.283Z,61.67
2018-11-26T16:43:33.637Z,53.50
2018-11-26T16:46:00.958Z,53.43
2018-11-26T16:48:28.363Z,54.20
2018-11-26T16:50:55.885Z,51.33
2018-11-26T16:53:23.222Z,53.60
2018-11-26T16:55:50.524Z,51.60
2018-11-26T16:58:17.811Z,56.87
2018-11-26T17:00:45.126Z,57.53
2018-11-26T17:03:12.476Z,52.87
2018-11-26T17:05:40.983Z,55.17
2018-11-26T17:08:11.553Z,55.83
2018-11-26T17:10:38.908Z,55.03
2018-11-26T17:13:06.402Z,54.47
2018-11-26T17:15:33.896Z,51.80
2018-11-26T17:18:01.141Z,57.97
2018-11-26T17:20:28.422Z,62.33
2018-11-26T17:22:55.797Z,52.90
2018-11-26T17:25:23.073Z,57.00
2018-11-26T17:27:50.607Z,51.77
2018-11-26T17:30:18.477Z,55.30
2018-11-26T17:32:46.220Z,59.80
2018-11-26T17:35:14.016Z,54.77
2018-11-26T17:37:43.061Z,55.57
2018-11-26T17:40:09.432Z,47.10
2018-11-26T17:42:36.691Z,53.20
2018-11-26T17:45:04.354Z,52.30
2018-11-26T17:47:31.602Z,60.93
2018-11-26T17:49:58.862Z,55.30
2018-11-26T17:52:26.395Z,49.60
2018-11-26T17:54:53.643Z,56.43
2018-11-26T17:57:21.160Z,53.97
2018-11-26T17:59:48.448Z,47.30
2018-11-26T18:02:15.713Z,48.40
2018-11-26T18:04:42.969Z,55.47
2018-11-26T18:07:10.222Z,54.73
2018-11-26T18:09:37.482Z,52.13
2018-11-26T18:12:04.858Z,53.47
2018-11-26T18:14:32.062Z,51.53
2018-11-26T18:16:59.629Z,52.53
2018-11-26T18:19:26.870Z,52.83
2018-11-26T18:21:54.359Z,51.70
2018-11-26T18:24:21.616Z,55.80
2018-11-26T18:26:48.806Z,53.23
2018-11-26T18:29:16.577Z,53.33
2018-11-26T18:31:44.087Z,56.23
2018-11-26T18:34:11.325Z,57.00
2018-11-26T18:36:38.575Z,52.40
2018-11-26T18:39:07.804Z,56.37
2018-11-26T18:41:35.044Z,54.40
2018-11-26T18:44:02.309Z,54.77
2018-11-26T18:46:29.561Z,63.47
2018-11-26T18:48:56.806Z,56.77
2018-11-26T18:51:24.045Z,58.63
2018-11-26T18:53:51.195Z,58.00
2018-11-26T18:56:18.610Z,53.77
2018-11-26T18:58:45.772Z,56.63
2018-11-26T19:01:13.023Z,58.37
2018-11-26T19:03:40.157Z,57.37
2018-11-26T19:06:07.302Z,53.97
2018-11-26T19:08:34.441Z,63.20
2018-11-26T19:11:07.129Z,54.80
2018-11-26T19:13:36.100Z,51.47
2018-11-26T19:16:06.021Z,56.10
2018-11-26T19:18:33.436Z,61.00
2018-11-26T19:21:00.602Z,58.00
2018-11-26T19:23:27.797Z,57.53
2018-11-26T19:25:55.259Z,53.83
2018-11-26T19:28:22.432Z,55.37
2018-11-26T19:30:49.608Z,56.03
2018-11-26T19:33:16.753Z,54.57
2018-11-26T19:35:43.899Z,52.07
2018-11-26T19:38:11.356Z,51.30
2018-11-26T19:40:38.957Z,58.67
2018-11-26T19:43:06.745Z,52.93
2018-11-26T19:45:33.908Z,52.33
2018-11-26T19:48:01.094Z,53.43
2018-11-26T19:50:28.284Z,52.00
2018-11-26T19:52:55.770Z,55.70
2018-11-26T19:55:26.271Z,49.63
2018-11-26T19:57:54.122Z,55.07
2018-11-26T20:00:22.993Z,53.03
2018-11-26T20:02:54.617Z,56.60
2018-11-26T20:05:23.171Z,48.43
2018-11-26T20:07:50.553Z,51.93
2018-11-26T20:10:17.813Z,50.43
2018-11-26T20:12:45.121Z,50.90
2018-11-26T20:15:13.280Z,50.57
2018-11-26T20:17:40.708Z,55.73
2018-11-26T20:20:08.200Z,51.53
2018-11-26T20:22:35.489Z,52.23
2018-11-26T20:25:02.829Z,55.07
2018-11-26T20:27:30.158Z,47.67
2018-11-26T20:29:57.493Z,57.37
2018-11-26T20:32:30.126Z,53.07
2018-11-26T20:34:52.221Z,53.83
2018-11-26T20:37:19.498Z,53.03
2018-11-26T20:39:46.810Z,53.83
2018-11-26T20:42:14.189Z,60.50
2018-11-26T20:44:41.513Z,56.17
2018-11-26T20:47:09.093Z,61.33
2018-11-26T20:49:36.414Z,53.33
2018-11-26T20:52:03.701Z,54.27
2018-11-26T20:54:31.046Z,52.00
2018-11-26T20:56:58.336Z,58.73
2018-11-26T20:59:25.668Z,58.93
2018-11-26T21:01:52.945Z,59.67
2018-11-26T21:04:20.273Z,50.57
2018-11-26T21:06:47.797Z,58.03
2018-11-26T21:09:15.104Z,56.03
2018-11-26T21:11:42.705Z,47.43
2018-11-26T21:14:10.011Z,47.13
2018-11-26T21:16:37.302Z,53.43
2018-11-26T21:19:04.854Z,53.80
2018-11-26T21:21:32.115Z,53.93
2018-11-26T21:23:59.395Z,51.23
2018-11-26T21:26:26.653Z,58.07
2018-11-26T21:28:53.938Z,55.60
2018-11-26T21:31:21.553Z,50.43
2018-11-26T21:33:48.834Z,49.57
2018-11-26T21:36:16.144Z,52.30
2018-11-26T21:38:43.499Z,62.13
2018-11-26T21:41:10.757Z,58.20
2018-11-26T21:43:38.048Z,57.07
2018-11-26T21:46:05.852Z,53.13
2018-11-26T21:48:33.099Z,53.33
2018-11-26T21:51:00.402Z,56.90
2018-11-26T21:53:27.652Z,52.90
2018-11-26T21:55:54.943Z,51.60
2018-11-26T21:58:22.239Z,63.63
2018-11-26T22:00:50.201Z,57.03
2018-11-26T22:03:17.720Z,60.63
2018-11-26T22:05:45.013Z,63.90
2018-11-26T22:08:12.421Z,53.97
2018-11-26T22:10:40.289Z,54.00
2018-11-26T22:13:08.248Z,48.37
2018-11-26T22:15:35.535Z,51.03
2018-11-26T22:18:02.831Z,48.83
2018-11-26T22:20:30.524Z,62.50
2018-11-26T22:22:57.813Z,54.23
2018-11-26T22:25:25.113Z,51.83
2018-11-26T22:27:52.886Z,55.60
2018-11-26T22:30:20.851Z,61.27
2018-11-26T22:32:48.166Z,52.83
2018-11-26T22:35:15.451Z,62.03
2018-11-26T22:37:42.771Z,53.70
2018-11-26T22:40:10.721Z,50.53
2018-11-26T22:42:38.065Z,57.37
2018-11-26T22:45:07.052Z,54.20
2018-11-26T22:47:34.657Z,62.23
2018-11-26T22:50:01.994Z,53.60
2018-11-26T22:52:29.264Z,55.97
2018-11-26T22:54:56.520Z,56.37
2018-11-26T22:57:23.825Z,50.87
2018-11-26T22:59:51.096Z,58.00
2018-11-26T23:02:18.457Z,50.50
2018-11-26T23:04:45.741Z,52.23
2018-11-26T23:07:13.053Z,54.13
2018-11-26T23:09:40.345Z,45.67
2018-11-26T23:12:07.598Z,56.87
2018-11-26T23:14:34.862Z,58.70
2018-11-26T23:17:02.186Z,53.93
2018-11-26T23:19:29.473Z,60.20
2018-11-26T23:21:56.750Z,52.10
2018-11-26T23:24:24.088Z,51.73
2018-11-26T23:26:51.430Z,52.43
2018-11-26T23:29:18.702Z,51.00
2018-11-26T23:31:46.012Z,56.10
2018-11-26T23:34:13.373Z,58.03
2018-11-26T23:36:40.673Z,54.83
2018-11-26T23:39:08.288Z,54.60
2018-11-26T23:41:35.575Z,60.43
2018-11-26T23:44:02.928Z,56.20
2018-11-26T23:46:30.266Z,52.90
2018-11-26T23:48:57.579Z,58.00
2018-11-26T23:51:24.928Z,51.07
2018-11-26T23:53:52.222Z,57.47
2018-11-26T23:56:19.815Z,54.57
2018-11-26T23:58:47.126Z,56.00
